createdAt,value
2023-01-31T00:01:24.337Z,102589.57
2023-01-31T00:03:56.321Z,102588.46
2023-01-31T00:06:31.883Z,102586.14
2023-01-31T00:09:00.453Z,102591.80
2023-01-31T00:11:30.326Z,102582.25
2023-01-31T00:13:59.374Z,102585.55
2023-01-31T00:16:27.303Z,102582.61
2023-01-31T00:18:55.113Z,102579.17
2023-01-31T00:21:24.579Z,102583.39
2023-01-31T00:23:52.853Z,102583.00
2023-01-31T00:26:33.760Z,102579.60
2023-01-31T00:29:02.675Z,102577.28
2023-01-31T00:31:31.790Z,102574.20
2023-01-31T00:33:59.913Z,102564.89
2023-01-31T00:36:30.822Z,102567.70
2023-01-31T00:39:00.536Z,102569.66
2023-01-31T00:41:29.294Z,102563.41
2023-01-31T00:43:57.249Z,102564.76
2023-01-31T00:46:25.139Z,102554.13
2023-01-31T00:48:53.107Z,102555.83
2023-01-31T00:51:21.213Z,102556.09
2023-01-31T00:53:49.191Z,102557.70
2023-01-31T00:56:21.506Z,102552.07
2023-01-31T00:58:49.501Z,102554.62
2023-01-31T01:01:19.989Z,102554.00
2023-01-31T01:03:47.836Z,102548.64
2023-01-31T01:06:15.650Z,102550.34
2023-01-31T01:08:43.867Z,102549.98
2023-01-31T01:11:14.864Z,102554.49
2023-01-31T01:13:42.862Z,102551.94
2023-01-31T01:16:18.545Z,102549.36
2023-01-31T01:18:48.236Z,102558.09
2023-01-31T01:21:26.632Z,102553.80
2023-01-31T01:23:54.864Z,102555.50
2023-01-31T01:26:24.864Z,102554.75
2023-01-31T01:28:52.948Z,102550.60
2023-01-31T01:31:21.031Z,102549.75
2023-01-31T01:33:49.825Z,102554.49
2023-01-31T01:36:19.238Z,102560.41
2023-01-31T01:38:47.189Z,102556.09
2023-01-31T01:41:15.452Z,102560.90
2023-01-31T01:43:57.224Z,102570.94
2023-01-31T01:46:31.711Z,102557.10
2023-01-31T01:49:14.626Z,102558.22
2023-01-31T01:51:42.405Z,102566.03
2023-01-31T01:54:14.307Z,102572.54
2023-01-31T01:56:43.390Z,102576.46
2023-01-31T01:59:19.759Z,102569.10
2023-01-31T02:01:47.998Z,102569.70
2023-01-31T02:04:18.465Z,102567.50
2023-01-31T02:06:46.513Z,102564.56
2023-01-31T02:09:21.704Z,102566.52
2023-01-31T02:11:49.525Z,102567.38
2023-01-31T02:14:17.279Z,102574.76
2023-01-31T02:16:45.107Z,102573.65
2023-01-31T02:19:23.031Z,102574.50
2023-01-31T02:22:06.296Z,102582.09
2023-01-31T02:24:47.601Z,102574.01
2023-01-31T02:27:50.214Z,102568.13
2023-01-31T02:30:33.057Z,102574.27
2023-01-31T02:33:25.079Z,102580.88
2023-01-31T02:36:04.962Z,102580.88
2023-01-31T02:38:57.397Z,102581.10
2023-01-31T02:41:25.176Z,102580.98
2023-01-31T02:44:18.612Z,102592.87
2023-01-31T02:46:53.860Z,102587.22
2023-01-31T02:49:42.809Z,102585.62
2023-01-31T02:52:36.735Z,102587.35
2023-01-31T02:55:47.498Z,102582.45
2023-01-31T02:58:16.165Z,102583.91
2023-01-31T03:00:45.852Z,102578.65
2023-01-31T03:03:24.399Z,102574.47
2023-01-31T03:06:09.405Z,102575.58
2023-01-31T03:08:37.207Z,102582.67
2023-01-31T03:11:06.417Z,102582.94
2023-01-31T03:13:49.558Z,102585.75
2023-01-31T03:16:51.719Z,102577.28
2023-01-31T03:19:29.664Z,102578.98
2023-01-31T03:22:02.675Z,102582.45
2023-01-31T03:24:31.403Z,102578.13
2023-01-31T03:26:59.903Z,102583.16
2023-01-31T03:29:27.697Z,102596.30
2023-01-31T03:32:07.807Z,102605.23
2023-01-31T03:34:36.179Z,102597.88
2023-01-31T03:37:12.977Z,102598.63
2023-01-31T03:39:42.869Z,102606.70
2023-01-31T03:42:18.601Z,102608.54
2023-01-31T03:45:06.113Z,102608.18
2023-01-31T03:47:43.529Z,102610.37
2023-01-31T03:50:15.274Z,102615.27
2023-01-31T03:52:50.921Z,102614.88
2023-01-31T03:55:21.668Z,102622.59
2023-01-31T03:57:52.589Z,102613.41
2023-01-31T04:00:21.058Z,102622.83
2023-01-31T04:02:50.276Z,102628.94
2023-01-31T04:05:20.800Z,102631.39
2023-01-31T04:07:49.113Z,102639.44
2023-01-31T04:10:18.609Z,102634.76
2023-01-31T04:12:47.192Z,102620.60
2023-01-31T04:15:15.189Z,102631.69
2023-01-31T04:17:42.966Z,102631.06
2023-01-31T04:20:11.843Z,102628.25
2023-01-31T04:22:39.808Z,102628.52
2023-01-31T04:25:08.991Z,102627.30
2023-01-31T04:27:37.135Z,102634.23
2023-01-31T04:30:05.254Z,102645.48
2023-01-31T04:32:33.495Z,102644.17
2023-01-31T04:35:02.578Z,102639.86
2023-01-31T04:37:30.569Z,102651.59
2023-01-31T04:39:58.408Z,102645.81
2023-01-31T04:42:26.326Z,102643.49
2023-01-31T04:44:54.135Z,102642.73
2023-01-31T04:47:21.907Z,102648.46
2023-01-31T04:49:49.651Z,102644.63
2023-01-31T04:52:17.462Z,102654.15
2023-01-31T04:54:45.244Z,102650.48
2023-01-31T04:57:13.110Z,102662.59
2023-01-31T04:59:40.941Z,102654.64
2023-01-31T05:02:08.945Z,102648.39
2023-01-31T05:04:36.761Z,102657.32
2023-01-31T05:07:04.588Z,102660.13
2023-01-31T05:09:32.755Z,102660.59
2023-01-31T05:12:00.543Z,102663.40
2023-01-31T05:14:29.190Z,102669.02
2023-01-31T05:16:57.004Z,102667.06
2023-01-31T05:19:24.751Z,102671.45
2023-01-31T05:22:01.447Z,102674.26
2023-01-31T05:24:33.646Z,102678.60
2023-01-31T05:27:02.701Z,102678.60
2023-01-31T05:29:32.526Z,102676.64
2023-01-31T05:32:01.879Z,102680.34
2023-01-31T05:34:34.390Z,102681.68
2023-01-31T05:37:02.761Z,102686.91
2023-01-31T05:39:31.161Z,102687.37
2023-01-31T05:41:59.244Z,102689.30
2023-01-31T05:44:27.027Z,102694.69
2023-01-31T05:46:54.906Z,102691.26
2023-01-31T05:49:22.784Z,102694.92
2023-01-31T05:51:50.629Z,102702.02
2023-01-31T05:54:18.421Z,102698.74
2023-01-31T05:56:46.212Z,102694.63
2023-01-31T05:59:13.937Z,102698.91
2023-01-31T06:01:41.839Z,102699.30
2023-01-31T06:04:10.908Z,102708.20
2023-01-31T06:06:38.752Z,102703.23
2023-01-31T06:09:06.633Z,102706.88
2023-01-31T06:11:34.373Z,102699.30
2023-01-31T06:14:02.281Z,102697.11
2023-01-31T06:16:30.046Z,102699.07
2023-01-31T06:18:58.253Z,102697.11
2023-01-31T06:21:26.211Z,102691.72
2023-01-31T06:23:54.020Z,102687.43
2023-01-31T06:26:21.929Z,102690.87
2023-01-31T06:28:49.805Z,102699.30
2023-01-31T06:31:17.707Z,102701.00
2023-01-31T06:33:47.624Z,102711.63
2023-01-31T06:36:18.831Z,102712.87
2023-01-31T06:38:51.908Z,102701.43
2023-01-31T06:41:23.081Z,102720.85
2023-01-31T06:43:50.869Z,102708.98
2023-01-31T06:46:19.088Z,102713.52
2023-01-31T06:48:46.981Z,102719.15
2023-01-31T06:51:14.815Z,102716.34
2023-01-31T06:53:42.858Z,102716.92
2023-01-31T06:56:11.051Z,102710.71
2023-01-31T06:58:38.861Z,102713.88
2023-01-31T07:01:11.145Z,102711.73
2023-01-31T07:03:39.421Z,102707.54
2023-01-31T07:06:07.884Z,102704.53
2023-01-31T07:08:36.365Z,102713.98
2023-01-31T07:11:04.766Z,102713.49
2023-01-31T07:13:32.722Z,102708.49
2023-01-31T07:16:00.742Z,102702.63
2023-01-31T07:18:28.707Z,102705.68
2023-01-31T07:20:56.470Z,102718.72
2023-01-31T07:23:24.254Z,102719.34
2023-01-31T07:25:52.066Z,102730.10
2023-01-31T07:28:19.903Z,102740.66
2023-01-31T07:30:49.126Z,102735.56
2023-01-31T07:33:16.967Z,102734.19
2023-01-31T07:35:44.873Z,102744.68
2023-01-31T07:38:12.635Z,102729.64
2023-01-31T07:40:41.346Z,102732.36
2023-01-31T07:43:09.237Z,102728.89
2023-01-31T07:45:37.457Z,102716.04
2023-01-31T07:48:07.304Z,102722.38
2023-01-31T07:50:35.108Z,102716.01
2023-01-31T07:53:03.013Z,102718.95
2023-01-31T07:55:30.906Z,102708.39
2023-01-31T07:57:58.758Z,102709.50
2023-01-31T08:00:45.223Z,102709.38
2023-01-31T08:03:34.900Z,102708.26
2023-01-31T08:06:12.545Z,102706.92
2023-01-31T08:08:40.658Z,102716.76
2023-01-31T08:11:08.644Z,102708.20
2023-01-31T08:13:36.663Z,102705.74
2023-01-31T08:16:05.757Z,102701.36
2023-01-31T08:18:33.914Z,102713.63
2023-01-31T08:21:01.825Z,102706.66
2023-01-31T08:23:29.720Z,102704.86
2023-01-31T08:26:02.214Z,102710.62
2023-01-31T08:28:30.417Z,102698.71
2023-01-31T08:31:08.273Z,102697.18
2023-01-31T08:33:38.290Z,102705.19
2023-01-31T08:36:13.148Z,102712.25
2023-01-31T08:38:41.173Z,102709.86
2023-01-31T08:41:09.134Z,102713.43
2023-01-31T08:43:54.211Z,102717.58
2023-01-31T08:46:28.350Z,102719.84
2023-01-31T08:48:56.092Z,102718.36
2023-01-31T08:51:24.108Z,102723.37
2023-01-31T08:53:52.002Z,102732.36
2023-01-31T08:56:22.416Z,102730.63
2023-01-31T08:58:50.260Z,102720.45
2023-01-31T09:01:19.884Z,102715.06
2023-01-31T09:03:48.346Z,102713.33
2023-01-31T09:06:18.900Z,102703.78
2023-01-31T09:08:47.055Z,102701.75
2023-01-31T09:11:20.067Z,102704.08
2023-01-31T09:13:50.705Z,102703.23
2023-01-31T09:16:18.666Z,102700.61
2023-01-31T09:18:46.444Z,102693.71
2023-01-31T09:21:16.117Z,102692.30
2023-01-31T09:23:44.028Z,102689.66
2023-01-31T09:26:15.901Z,102696.75
2023-01-31T09:28:44.432Z,102696.39
2023-01-31T09:31:17.021Z,102692.99
2023-01-31T09:33:45.297Z,102696.95
2023-01-31T09:36:17.900Z,102690.31
2023-01-31T09:38:46.032Z,102689.13
2023-01-31T09:41:21.353Z,102693.52
2023-01-31T09:43:55.225Z,102692.40
2023-01-31T09:46:25.518Z,102692.14
2023-01-31T09:48:53.997Z,102688.31
2023-01-31T09:51:21.959Z,102686.16
2023-01-31T09:53:49.821Z,102696.45
2023-01-31T09:56:22.371Z,102698.52
2023-01-31T09:58:56.277Z,102696.26
2023-01-31T10:01:30.623Z,102703.39
2023-01-31T10:04:09.311Z,102692.89
2023-01-31T10:06:49.322Z,102689.46
2023-01-31T10:09:35.855Z,102688.02
2023-01-31T10:12:12.802Z,102689.46
2023-01-31T10:14:51.497Z,102690.60
2023-01-31T10:17:22.356Z,102680.34
2023-01-31T10:19:57.165Z,102678.34
2023-01-31T10:22:56.405Z,102678.05
2023-01-31T10:25:28.115Z,102680.92
2023-01-31T10:28:06.850Z,102668.96
2023-01-31T10:31:04.158Z,102659.31
2023-01-31T10:34:00.385Z,102662.75
2023-01-31T10:36:31.106Z,102654.48
2023-01-31T10:39:25.114Z,102665.30
2023-01-31T10:41:55.920Z,102657.05
2023-01-31T10:44:35.786Z,102656.47
2023-01-31T10:47:03.928Z,102642.25
2023-01-31T10:49:31.801Z,102628.58
2023-01-31T10:51:59.488Z,102627.17
2023-01-31T10:54:34.707Z,102637.70
2023-01-31T10:57:02.551Z,102634.30
2023-01-31T10:59:36.073Z,102632.30
2023-01-31T11:02:04.222Z,102629.46
2023-01-31T11:04:41.983Z,102627.44
2023-01-31T11:07:10.063Z,102619.33
2023-01-31T11:09:42.619Z,102607.62
2023-01-31T11:12:10.577Z,102619.69
2023-01-31T11:14:38.328Z,102597.29
2023-01-31T11:17:14.861Z,102597.32
2023-01-31T11:19:55.577Z,102601.90
2023-01-31T11:22:41.529Z,102595.39
2023-01-31T11:25:20.829Z,102589.37
2023-01-31T11:27:48.781Z,102584.27
2023-01-31T11:30:26.258Z,102599.87
2023-01-31T11:32:54.139Z,102591.30
2023-01-31T11:35:23.051Z,102584.77
2023-01-31T11:37:57.531Z,102582.48
2023-01-31T11:40:36.028Z,102581.40
2023-01-31T11:43:08.484Z,102583.36
2023-01-31T11:45:38.176Z,102568.29
2023-01-31T11:48:15.423Z,102562.89
2023-01-31T11:50:48.332Z,102559.49
2023-01-31T11:53:20.360Z,102564.30
2023-01-31T11:55:49.101Z,102561.16
2023-01-31T11:58:22.597Z,102557.62
2023-01-31T12:01:04.050Z,102555.27
2023-01-31T12:03:31.869Z,102544.81
2023-01-31T12:06:10.070Z,102537.23
2023-01-31T12:08:42.396Z,102530.10
2023-01-31T12:11:22.338Z,102534.67
2023-01-31T12:14:14.113Z,102529.12
2023-01-31T12:16:41.923Z,102540.23
2023-01-31T12:19:12.651Z,102543.63
2023-01-31T12:21:40.312Z,102524.34
2023-01-31T12:24:26.161Z,102521.73
2023-01-31T12:26:58.613Z,102520.84
2023-01-31T12:29:51.958Z,102521.07
2023-01-31T12:32:48.126Z,102529.61
2023-01-31T12:35:21.981Z,102528.37
2023-01-31T12:38:27.308Z,102522.41
2023-01-31T12:41:22.752Z,102524.96
2023-01-31T12:44:27.012Z,102527.16
2023-01-31T12:47:15.155Z,102524.73
2023-01-31T12:50:01.965Z,102508.71
2023-01-31T12:52:54.803Z,102506.36
2023-01-31T12:55:25.274Z,102501.33
2023-01-31T12:58:31.910Z,102501.69
2023-01-31T13:01:01.439Z,102500.28
2023-01-31T13:03:50.731Z,102496.59
2023-01-31T13:06:21.366Z,102502.90
2023-01-31T13:09:06.816Z,102501.36
2023-01-31T13:11:52.034Z,102493.05
2023-01-31T13:14:22.596Z,102497.08
2023-01-31T13:16:53.682Z,102505.28
2023-01-31T13:19:27.828Z,102499.33
2023-01-31T13:21:59.109Z,102497.66
2023-01-31T13:24:30.137Z,102495.41
2023-01-31T13:27:07.496Z,102494.82
2023-01-31T13:30:07.093Z,102492.89
2023-01-31T13:32:44.346Z,102488.70
2023-01-31T13:35:23.297Z,102483.08
2023-01-31T13:37:53.014Z,102464.94
2023-01-31T13:40:27.612Z,102465.49
2023-01-31T13:42:55.421Z,102459.84
2023-01-31T13:45:34.984Z,102459.31
2023-01-31T13:48:08.346Z,102473.80
2023-01-31T13:50:43.174Z,102472.65
2023-01-31T13:53:21.995Z,102475.20
2023-01-31T13:55:49.912Z,102473.20
2023-01-31T13:58:29.844Z,102464.41
2023-01-31T14:01:05.612Z,102482.59
2023-01-31T14:03:53.221Z,102479.16
2023-01-31T14:06:21.069Z,102479.98
2023-01-31T14:08:51.770Z,102486.19
2023-01-31T14:11:20.219Z,102485.86
2023-01-31T14:13:52.160Z,102486.16
2023-01-31T14:16:44.794Z,102485.24
2023-01-31T14:19:24.556Z,102487.76
2023-01-31T14:22:01.423Z,102497.63
2023-01-31T14:24:47.781Z,102491.68
2023-01-31T14:27:20.206Z,102484.03
2023-01-31T14:29:49.351Z,102478.60
2023-01-31T14:32:42.675Z,102474.94
2023-01-31T14:35:13.515Z,102469.77
2023-01-31T14:37:48.528Z,102474.61
2023-01-31T14:40:47.940Z,102465.52
2023-01-31T14:43:34.728Z,102463.82
2023-01-31T14:46:11.354Z,102469.19
2023-01-31T14:49:19.213Z,102468.34
2023-01-31T14:52:05.198Z,102472.29
2023-01-31T14:54:43.365Z,102462.65
2023-01-31T14:57:26.897Z,102472.52
2023-01-31T14:59:56.924Z,102472.52
2023-01-31T15:02:33.957Z,102475.33
2023-01-31T15:05:12.877Z,102471.60
2023-01-31T15:08:08.447Z,102452.87
2023-01-31T15:11:04.071Z,102449.73
2023-01-31T15:13:38.862Z,102447.21
2023-01-31T15:16:09.332Z,102445.52
2023-01-31T15:18:37.246Z,102450.02
2023-01-31T15:21:06.756Z,102458.82
2023-01-31T15:23:35.149Z,102462.74
2023-01-31T15:26:03.001Z,102470.72
2023-01-31T15:28:34.514Z,102464.51
2023-01-31T15:31:06.839Z,102461.96
2023-01-31T15:33:42.671Z,102446.63
2023-01-31T15:36:32.015Z,102460.52
2023-01-31T15:39:22.230Z,102468.73
2023-01-31T15:41:50.118Z,102488.25
2023-01-31T15:44:25.066Z,102493.02
2023-01-31T15:46:54.132Z,102478.57
2023-01-31T15:49:38.026Z,102477.72
2023-01-31T15:52:09.617Z,102485.96
2023-01-31T15:54:37.406Z,102481.67
2023-01-31T15:57:05.297Z,102487.33
2023-01-31T15:59:33.935Z,102490.73
2023-01-31T16:02:02.909Z,102497.24
2023-01-31T16:04:30.787Z,102499.46
2023-01-31T16:06:58.629Z,102504.04
2023-01-31T16:09:31.178Z,102505.12
2023-01-31T16:12:02.466Z,102499.76
2023-01-31T16:14:30.252Z,102506.82
2023-01-31T16:16:59.015Z,102505.38
2023-01-31T16:19:29.217Z,102498.80
2023-01-31T16:21:57.063Z,102496.81
2023-01-31T16:24:25.152Z,102471.28
2023-01-31T16:26:57.054Z,102477.75
2023-01-31T16:29:31.275Z,102472.65
2023-01-31T16:31:59.233Z,102472.32
2023-01-31T16:34:37.447Z,102481.61
2023-01-31T16:37:06.513Z,102471.44
2023-01-31T16:39:51.986Z,102472.00
2023-01-31T16:42:22.079Z,102464.05
2023-01-31T16:44:50.010Z,102453.03
2023-01-31T16:47:32.487Z,102426.71
2023-01-31T16:50:20.836Z,102436.26
2023-01-31T16:53:22.941Z,102448.69
2023-01-31T16:56:16.994Z,102465.72
2023-01-31T16:58:51.659Z,102454.99
2023-01-31T17:01:27.393Z,102450.19
2023-01-31T17:04:10.760Z,102463.79
2023-01-31T17:06:39.063Z,102484.72
2023-01-31T17:09:08.406Z,102503.68
2023-01-31T17:11:43.717Z,102503.41
2023-01-31T17:14:12.021Z,102511.63
2023-01-31T17:16:40.238Z,102507.70
2023-01-31T17:19:08.042Z,102513.91
2023-01-31T17:21:44.940Z,102526.37
2023-01-31T17:24:20.641Z,102532.29
2023-01-31T17:26:48.981Z,102528.59
2023-01-31T17:29:16.955Z,102525.78
2023-01-31T17:31:44.936Z,102521.83
2023-01-31T17:34:16.085Z,102523.79
2023-01-31T17:36:44.787Z,102517.28
2023-01-31T17:39:12.603Z,102509.08
2023-01-31T17:41:42.319Z,102519.54
2023-01-31T17:44:13.986Z,102532.81
2023-01-31T17:46:42.198Z,102526.30
2023-01-31T17:49:10.151Z,102507.34
2023-01-31T17:51:38.060Z,102512.45
2023-01-31T17:54:06.004Z,102520.09
2023-01-31T17:56:33.946Z,102529.12
2023-01-31T17:59:01.791Z,102521.63
2023-01-31T18:01:29.822Z,102525.06
2023-01-31T18:03:59.315Z,102520.78
2023-01-31T18:06:27.125Z,102530.13
2023-01-31T18:08:54.873Z,102525.91
2023-01-31T18:11:22.683Z,102527.35
2023-01-31T18:13:50.463Z,102535.30
2023-01-31T18:16:21.713Z,102538.70
2023-01-31T18:18:50.639Z,102538.70
2023-01-31T18:21:21.484Z,102551.74
2023-01-31T18:23:53.682Z,102548.64
2023-01-31T18:26:21.760Z,102552.30
2023-01-31T18:28:50.077Z,102562.80
2023-01-31T18:31:18.373Z,102565.61
2023-01-31T18:33:48.045Z,102564.46
2023-01-31T18:36:20.522Z,102570.15
2023-01-31T18:38:49.444Z,102569.56
2023-01-31T18:41:20.098Z,102566.45
2023-01-31T18:43:48.873Z,102567.05
2023-01-31T18:46:18.052Z,102572.11
2023-01-31T18:48:45.846Z,102571.03
2023-01-31T18:51:14.713Z,102561.39
2023-01-31T18:53:46.751Z,102554.03
2023-01-31T18:56:16.165Z,102550.34
2023-01-31T18:58:45.872Z,102550.01
2023-01-31T19:01:15.645Z,102565.90
2023-01-31T19:03:43.995Z,102565.28
2023-01-31T19:06:19.643Z,102558.77
2023-01-31T19:08:51.520Z,102555.11
2023-01-31T19:11:20.075Z,102548.24
2023-01-31T19:13:47.947Z,102549.39
2023-01-31T19:16:25.912Z,102535.49
2023-01-31T19:18:54.002Z,102550.77
2023-01-31T19:21:31.755Z,102551.61
2023-01-31T19:24:00.896Z,102564.07
2023-01-31T19:26:28.971Z,102573.68
2023-01-31T19:28:57.120Z,102575.97
2023-01-31T19:31:25.749Z,102577.38
2023-01-31T19:33:57.713Z,102567.73
2023-01-31T19:36:27.009Z,102566.88
2023-01-31T19:38:54.845Z,102561.72
2023-01-31T19:41:23.242Z,102550.47
2023-01-31T19:43:51.950Z,102557.27
2023-01-31T19:46:22.147Z,102561.84
2023-01-31T19:48:50.098Z,102573.39
2023-01-31T19:51:19.166Z,102557.83
2023-01-31T19:53:47.502Z,102581.04
2023-01-31T19:56:15.504Z,102570.58
2023-01-31T19:58:43.627Z,102567.21
2023-01-31T20:01:13.078Z,102557.04
2023-01-31T20:03:41.346Z,102553.90
2023-01-31T20:06:16.657Z,102548.87
2023-01-31T20:08:44.588Z,102550.83
2023-01-31T20:11:12.441Z,102557.59
2023-01-31T20:13:40.235Z,102552.27
2023-01-31T20:16:10.094Z,102556.74
2023-01-31T20:18:38.912Z,102544.87
2023-01-31T20:21:07.395Z,102545.66
2023-01-31T20:23:35.258Z,102538.83
2023-01-31T20:26:04.259Z,102527.52
2023-01-31T20:28:32.187Z,102547.03
2023-01-31T20:31:07.285Z,102543.96
2023-01-31T20:33:35.185Z,102553.28
2023-01-31T20:36:03.238Z,102562.14
2023-01-31T20:38:32.035Z,102560.48
2023-01-31T20:41:00.126Z,102563.05
2023-01-31T20:43:28.400Z,102566.45
2023-01-31T20:46:06.141Z,102569.04
2023-01-31T20:48:34.410Z,102561.39
2023-01-31T20:51:02.348Z,102553.15
2023-01-31T20:53:30.337Z,102552.92
2023-01-31T20:56:03.730Z,102556.32
2023-01-31T20:58:33.389Z,102554.91
2023-01-31T21:01:04.821Z,102552.95
2023-01-31T21:03:33.993Z,102551.25
2023-01-31T21:06:02.027Z,102540.76
2023-01-31T21:08:32.373Z,102536.84
2023-01-31T21:11:00.573Z,102522.68
2023-01-31T21:13:31.241Z,102513.06
2023-01-31T21:16:00.045Z,102514.77
2023-01-31T21:18:28.921Z,102515.91
2023-01-31T21:20:56.920Z,102520.42
2023-01-31T21:23:25.078Z,102518.13
2023-01-31T21:25:52.893Z,102504.86
2023-01-31T21:28:21.099Z,102509.63
2023-01-31T21:31:01.904Z,102506.55
2023-01-31T21:33:30.372Z,102505.12
2023-01-31T21:35:59.392Z,102502.60
2023-01-31T21:38:27.465Z,102496.03
2023-01-31T21:41:15.294Z,102495.18
2023-01-31T21:43:43.173Z,102494.85
2023-01-31T21:46:14.306Z,102495.41
2023-01-31T21:48:42.240Z,102498.55
2023-01-31T21:51:13.761Z,102503.09
2023-01-31T21:53:42.066Z,102496.03
2023-01-31T21:56:18.682Z,102501.42
2023-01-31T21:58:46.770Z,102500.31
2023-01-31T22:01:19.291Z,102508.78
2023-01-31T22:03:51.475Z,102499.20
2023-01-31T22:06:24.612Z,102500.61
2023-01-31T22:08:57.508Z,102489.59
2023-01-31T22:11:25.488Z,102498.64
2023-01-31T22:13:56.013Z,102494.95
2023-01-31T22:16:24.345Z,102486.22
2023-01-31T22:18:53.147Z,102485.37
2023-01-31T22:21:22.794Z,102502.63
2023-01-31T22:23:52.355Z,102490.18
2023-01-31T22:26:27.964Z,102500.67
2023-01-31T22:28:56.745Z,102489.66
2023-01-31T22:31:24.834Z,102489.95
2023-01-31T22:33:52.853Z,102484.52
2023-01-31T22:36:20.724Z,102474.02
2023-01-31T22:38:48.672Z,102462.41
2023-01-31T22:41:19.647Z,102455.91
2023-01-31T22:43:49.122Z,102456.47
2023-01-31T22:46:18.688Z,102453.55
2023-01-31T22:48:47.558Z,102439.40
2023-01-31T22:51:16.223Z,102442.77
2023-01-31T22:53:44.029Z,102443.03
2023-01-31T22:56:22.784Z,102443.32
2023-01-31T22:58:50.664Z,102436.81
2023-01-31T23:01:20.102Z,102434.82
2023-01-31T23:03:48.037Z,102443.62
2023-01-31T23:06:16.304Z,102445.05
2023-01-31T23:08:44.716Z,102438.02
2023-01-31T23:11:13.921Z,102436.59
2023-01-31T23:13:41.963Z,102436.59
2023-01-31T23:16:10.395Z,102428.94
2023-01-31T23:18:38.270Z,102418.77
2023-01-31T23:21:10.227Z,102419.84
2023-01-31T23:23:38.506Z,102413.66
2023-01-31T23:26:06.799Z,102404.61
2023-01-31T23:28:34.672Z,102406.84
2023-01-31T23:31:02.482Z,102397.22
2023-01-31T23:33:30.318Z,102398.37
2023-01-31T23:35:58.271Z,102392.38
2023-01-31T23:38:26.107Z,102384.47
2023-01-31T23:40:54.627Z,102391.86
2023-01-31T23:43:22.990Z,102386.76
2023-01-31T23:45:50.847Z,102377.15
2023-01-31T23:48:18.738Z,102377.15
2023-01-31T23:50:46.633Z,102371.20
2023-01-31T23:53:14.413Z,102373.19
2023-01-31T23:55:42.206Z,102373.74
2023-01-31T23:58:10.017Z,102381.10
